createdAt,value
2022-10-07T00:01:01.920Z,9.10
2022-10-07T00:03:29.823Z,9.10
2022-10-07T00:06:17.024Z,9.10
2022-10-07T00:08:47.366Z,9.10
2022-10-07T00:11:17.862Z,9.00
2022-10-07T00:13:47.173Z,9.00
2022-10-07T00:16:18.012Z,9.00
2022-10-07T00:18:45.793Z,9.00
2022-10-07T00:21:15.816Z,8.90
2022-10-07T00:23:44.662Z,8.90
2022-10-07T00:26:15.794Z,8.90
2022-10-07T00:28:43.684Z,8.80
2022-10-07T00:31:17.986Z,8.80
2022-10-07T00:33:46.161Z,8.80
2022-10-07T00:36:16.048Z,8.70
2022-10-07T00:38:43.686Z,8.70
2022-10-07T00:41:18.959Z,8.70
2022-10-07T00:43:46.283Z,8.70
2022-10-07T00:46:29.791Z,8.70
2022-10-07T00:49:16.132Z,8.60
2022-10-07T00:51:43.967Z,8.60
2022-10-07T00:54:16.324Z,8.50
2022-10-07T00:56:45.515Z,8.50
2022-10-07T00:59:14.690Z,8.50
2022-10-07T01:01:43.067Z,8.50
2022-10-07T01:04:12.231Z,8.50
2022-10-07T01:06:43.403Z,8.40
2022-10-07T01:09:12.837Z,8.40
2022-10-07T01:11:55.736Z,8.40
2022-10-07T01:14:39.361Z,8.40
2022-10-07T01:17:16.514Z,8.40
2022-10-07T01:20:02.360Z,8.30
2022-10-07T01:22:35.230Z,8.30
2022-10-07T01:25:27.374Z,8.30
2022-10-07T01:28:50.163Z,8.30
2022-10-07T01:31:22.968Z,8.30
2022-10-07T01:33:53.455Z,8.20
2022-10-07T01:36:24.230Z,8.20
2022-10-07T01:38:57.275Z,8.20
2022-10-07T01:41:25.508Z,8.10
2022-10-07T01:43:55.013Z,8.20
2022-10-07T01:46:25.459Z,8.10
2022-10-07T01:48:54.614Z,8.10
2022-10-07T01:51:24.660Z,8.10
2022-10-07T01:57:33.877Z,8.10
2022-10-07T02:00:01.523Z,8.10
2022-10-07T02:02:47.735Z,8.10
2022-10-07T02:05:30.563Z,8.00
2022-10-07T02:08:22.550Z,8.00
2022-10-07T02:11:13.956Z,8.00
2022-10-07T02:14:03.762Z,8.00
2022-10-07T02:16:48.650Z,7.90
2022-10-07T02:19:48.457Z,7.90
2022-10-07T02:22:18.932Z,7.90
2022-10-07T02:24:47.951Z,7.90
2022-10-07T02:27:18.718Z,7.90
2022-10-07T02:29:48.258Z,7.90
2022-10-07T02:32:21.500Z,7.90
2022-10-07T02:34:56.421Z,7.90
2022-10-07T02:37:35.566Z,7.90
2022-10-07T02:40:07.137Z,7.80
2022-10-07T02:42:52.195Z,7.80
2022-10-07T02:45:27.275Z,7.80
2022-10-07T02:48:21.765Z,7.70
2022-10-07T02:50:53.521Z,7.70
2022-10-07T02:53:23.079Z,7.70
2022-10-07T02:55:53.054Z,7.70
2022-10-07T02:58:25.994Z,7.60
2022-10-07T03:00:59.674Z,7.60
2022-10-07T03:03:27.734Z,7.60
2022-10-07T03:05:55.349Z,7.50
2022-10-07T03:08:23.449Z,7.50
2022-10-07T03:10:51.044Z,7.50
2022-10-07T03:13:18.345Z,7.50
2022-10-07T03:15:46.325Z,7.50
2022-10-07T03:18:26.872Z,7.40
2022-10-07T03:20:55.932Z,7.40
2022-10-07T03:23:25.026Z,7.40
2022-10-07T03:25:54.392Z,7.40
2022-10-07T03:28:23.864Z,7.40
2022-10-07T03:30:52.166Z,7.30
2022-10-07T03:33:22.131Z,7.30
2022-10-07T03:35:49.389Z,7.30
2022-10-07T03:38:16.585Z,7.30
2022-10-07T03:40:47.807Z,7.30
2022-10-07T03:43:15.153Z,7.30
2022-10-07T03:45:49.849Z,7.20
2022-10-07T03:48:17.336Z,7.20
2022-10-07T03:50:56.115Z,7.20
2022-10-07T03:53:24.045Z,7.20
2022-10-07T03:55:51.288Z,7.20
2022-10-07T03:58:18.800Z,7.20
2022-10-07T04:00:46.120Z,7.20
2022-10-07T04:03:14.643Z,7.20
2022-10-07T04:05:42.377Z,7.30
2022-10-07T04:08:11.867Z,7.30
2022-10-07T04:10:38.875Z,7.30
2022-10-07T04:13:06.133Z,7.30
2022-10-07T04:15:34.097Z,7.30
2022-10-07T04:18:01.538Z,7.30
2022-10-07T04:20:28.851Z,7.30
2022-10-07T04:22:55.875Z,7.30
2022-10-07T04:28:29.560Z,7.30
2022-10-07T04:30:56.881Z,7.30
2022-10-07T04:33:25.342Z,7.30
2022-10-07T04:35:52.852Z,7.30
2022-10-07T04:38:20.285Z,7.30
2022-10-07T04:40:51.661Z,7.30
2022-10-07T04:43:23.872Z,7.30
2022-10-07T04:46:00.617Z,7.30
2022-10-07T04:48:28.212Z,7.30
2022-10-07T04:50:56.597Z,7.30
2022-10-07T04:53:23.903Z,7.30
2022-10-07T04:55:52.111Z,7.30
2022-10-07T04:58:20.329Z,7.30
2022-10-07T05:00:50.903Z,7.20
2022-10-07T05:03:20.927Z,7.20
2022-10-07T05:05:50.613Z,7.20
2022-10-07T05:08:19.863Z,7.10
2022-10-07T05:10:47.661Z,7.10
2022-10-07T05:13:17.306Z,7.10
2022-10-07T05:15:55.186Z,7.10
2022-10-07T05:18:23.705Z,7.10
2022-10-07T05:20:51.691Z,7.10
2022-10-07T05:23:25.646Z,7.10
2022-10-07T05:26:01.425Z,7.10
2022-10-07T05:28:29.870Z,7.10
2022-10-07T05:31:08.590Z,7.10
2022-10-07T05:33:36.644Z,7.10
2022-10-07T05:36:06.038Z,7.10
2022-10-07T05:38:34.117Z,7.10
2022-10-07T05:41:07.469Z,7.10
2022-10-07T05:43:36.593Z,7.10
2022-10-07T05:46:06.723Z,7.10
2022-10-07T05:48:38.961Z,7.10
2022-10-07T05:51:08.458Z,7.10
2022-10-07T05:53:35.996Z,7.10
2022-10-07T05:56:12.322Z,7.10
2022-10-07T05:58:39.652Z,7.20
2022-10-07T06:01:16.773Z,7.20
2022-10-07T06:03:48.944Z,7.20
2022-10-07T06:09:30.486Z,7.30
2022-10-07T06:12:16.620Z,7.30
2022-10-07T06:14:43.941Z,7.30
2022-10-07T06:17:11.419Z,7.40
2022-10-07T06:19:39.034Z,7.40
2022-10-07T06:22:06.336Z,7.40
2022-10-07T06:24:34.227Z,7.50
2022-10-07T06:27:01.235Z,7.50
2022-10-07T06:29:29.043Z,7.60
2022-10-07T06:31:56.861Z,7.70
2022-10-07T06:34:24.051Z,7.70
2022-10-07T06:36:51.557Z,7.80
2022-10-07T06:39:18.740Z,7.90
2022-10-07T06:41:46.168Z,8.00
2022-10-07T06:44:13.885Z,8.10
2022-10-07T06:46:41.061Z,8.10
2022-10-07T06:49:08.202Z,8.20
2022-10-07T06:51:35.448Z,8.30
2022-10-07T06:54:02.745Z,8.30
2022-10-07T06:56:30.025Z,8.40
2022-10-07T06:58:57.408Z,8.60
2022-10-07T07:01:24.681Z,8.80
2022-10-07T07:03:52.153Z,9.00
2022-10-07T07:06:19.408Z,9.30
2022-10-07T07:08:50.260Z,9.50
2022-10-07T07:11:37.423Z,9.60
2022-10-07T07:14:05.957Z,9.70
2022-10-07T07:16:35.362Z,9.70
2022-10-07T07:19:06.414Z,9.70
2022-10-07T07:21:38.433Z,9.60
2022-10-07T07:24:06.312Z,9.60
2022-10-07T07:26:34.306Z,9.60
2022-10-07T07:29:03.089Z,9.60
2022-10-07T07:31:32.356Z,9.60
2022-10-07T07:34:02.316Z,9.60
2022-10-07T07:36:31.854Z,9.60
2022-10-07T07:39:01.771Z,9.60
2022-10-07T07:41:34.629Z,9.70
2022-10-07T07:44:05.344Z,9.80
2022-10-07T07:46:38.591Z,9.80
2022-10-07T07:49:06.258Z,9.90
2022-10-07T07:51:33.717Z,9.90
2022-10-07T07:54:00.819Z,10.00
2022-10-07T07:56:29.613Z,10.10
2022-10-07T07:58:57.177Z,10.10
2022-10-07T08:01:24.482Z,10.20
2022-10-07T08:03:52.279Z,10.30
2022-10-07T08:06:21.411Z,10.40
2022-10-07T08:08:48.637Z,10.50
2022-10-07T08:11:20.674Z,10.60
2022-10-07T08:13:48.912Z,10.60
2022-10-07T08:16:19.096Z,10.70
2022-10-07T08:18:48.409Z,10.80
2022-10-07T08:21:21.321Z,10.90
2022-10-07T08:23:51.931Z,11.00
2022-10-07T08:26:19.237Z,11.10
2022-10-07T08:28:48.871Z,11.20
2022-10-07T08:31:19.600Z,11.30
2022-10-07T08:33:49.278Z,11.40
2022-10-07T08:36:18.718Z,11.50
2022-10-07T08:38:49.685Z,11.60
2022-10-07T08:41:55.612Z,11.70
2022-10-07T08:44:32.950Z,11.80
2022-10-07T08:47:16.251Z,11.90
2022-10-07T08:49:54.763Z,12.00
2022-10-07T08:52:40.443Z,12.10
2022-10-07T08:55:56.981Z,12.30
2022-10-07T08:58:55.739Z,12.40
2022-10-07T09:01:39.426Z,12.60
2022-10-07T09:04:23.154Z,12.70
2022-10-07T09:07:04.091Z,12.80
2022-10-07T09:09:40.202Z,12.80
2022-10-07T09:12:13.397Z,12.90
2022-10-07T09:14:47.252Z,13.10
2022-10-07T09:17:34.203Z,13.20
2022-10-07T09:20:20.354Z,13.30
2022-10-07T09:22:53.809Z,13.40
2022-10-07T09:25:23.845Z,13.50
2022-10-07T09:27:52.595Z,13.60
2022-10-07T09:30:21.452Z,13.70
2022-10-07T09:32:56.895Z,13.80
2022-10-07T09:35:25.561Z,13.90
2022-10-07T09:38:00.614Z,14.00
2022-10-07T09:40:27.959Z,14.20
2022-10-07T09:42:55.512Z,14.60
2022-10-07T09:45:27.288Z,14.90
2022-10-07T09:47:57.226Z,15.20
2022-10-07T09:50:45.182Z,15.50
2022-10-07T09:53:29.177Z,16.00
2022-10-07T09:55:56.543Z,16.60
2022-10-07T09:58:31.116Z,17.30
2022-10-07T10:01:03.073Z,17.80
2022-10-07T10:03:39.218Z,18.30
2022-10-07T10:06:10.207Z,18.70
2022-10-07T10:08:44.166Z,18.90
2022-10-07T10:11:20.412Z,19.00
2022-10-07T10:13:52.234Z,19.10
2022-10-07T10:16:25.854Z,19.10
2022-10-07T10:19:00.343Z,19.20
2022-10-07T10:21:49.052Z,19.20
2022-10-07T10:24:16.856Z,19.30
2022-10-07T10:27:04.133Z,19.30
2022-10-07T10:29:53.055Z,19.20
2022-10-07T10:32:48.885Z,19.20
2022-10-07T10:35:29.057Z,19.10
2022-10-07T10:38:33.541Z,19.10
2022-10-07T10:41:19.914Z,19.20
2022-10-07T10:44:05.119Z,19.30
2022-10-07T10:46:39.611Z,19.10
2022-10-07T10:49:29.016Z,19.00
2022-10-07T10:52:13.384Z,19.00
2022-10-07T10:55:05.225Z,18.90
2022-10-07T10:57:49.398Z,18.70
2022-10-07T11:00:22.203Z,18.60
2022-10-07T11:03:13.901Z,18.50
2022-10-07T11:05:42.828Z,18.30
2022-10-07T11:08:27.710Z,18.20
2022-10-07T11:11:03.698Z,18.00
2022-10-07T11:13:31.021Z,18.00
2022-10-07T11:16:08.928Z,17.90
2022-10-07T11:18:46.081Z,18.00
2022-10-07T11:21:21.330Z,18.00
2022-10-07T11:24:02.536Z,18.10
2022-10-07T11:26:34.931Z,18.10
2022-10-07T11:29:22.574Z,18.20
2022-10-07T11:32:18.473Z,18.20
2022-10-07T11:35:21.716Z,18.30
2022-10-07T11:38:13.352Z,18.20
2022-10-07T11:40:57.755Z,18.10
2022-10-07T11:43:39.335Z,17.90
2022-10-07T11:46:26.156Z,17.80
2022-10-07T11:49:12.104Z,17.80
2022-10-07T11:52:11.235Z,17.80
2022-10-07T11:54:50.180Z,17.80
2022-10-07T11:57:25.071Z,17.90
2022-10-07T12:00:05.185Z,18.00
2022-10-07T12:02:32.960Z,18.10
2022-10-07T12:05:01.812Z,18.30
2022-10-07T12:07:37.453Z,18.40
2022-10-07T12:10:05.054Z,18.50
2022-10-07T12:12:48.057Z,18.60
2022-10-07T12:15:36.711Z,18.70
2022-10-07T12:18:04.677Z,18.90
2022-10-07T12:20:37.708Z,19.00
2022-10-07T12:23:28.660Z,19.10
2022-10-07T12:26:04.802Z,19.10
2022-10-07T12:28:37.216Z,19.10
2022-10-07T12:31:16.428Z,19.00
2022-10-07T12:33:46.776Z,19.00
2022-10-07T12:36:32.232Z,18.90
2022-10-07T12:39:02.597Z,18.90
2022-10-07T12:41:44.307Z,18.90
2022-10-07T12:44:36.859Z,18.90
2022-10-07T12:47:20.302Z,18.90
2022-10-07T12:49:58.235Z,18.90
2022-10-07T12:52:38.824Z,18.80
2022-10-07T12:55:07.745Z,18.80
2022-10-07T12:57:38.508Z,18.70
2022-10-07T13:00:08.487Z,18.60
2022-10-07T13:02:54.426Z,18.40
2022-10-07T13:05:44.056Z,18.40
2022-10-07T13:08:42.548Z,18.30
2022-10-07T13:11:51.605Z,18.20
2022-10-07T13:14:43.922Z,18.10
2022-10-07T13:17:14.177Z,18.10
2022-10-07T13:19:57.220Z,18.00
2022-10-07T13:22:26.049Z,18.00
2022-10-07T13:24:58.782Z,18.00
2022-10-07T13:27:32.834Z,17.90
2022-10-07T13:30:02.478Z,17.90
2022-10-07T13:32:32.138Z,17.90
2022-10-07T13:35:01.760Z,17.90
2022-10-07T13:37:32.124Z,17.80
2022-10-07T13:40:22.470Z,17.80
2022-10-07T13:42:59.472Z,17.80
2022-10-07T13:45:28.418Z,17.70
2022-10-07T13:47:57.483Z,17.70
2022-10-07T13:50:27.890Z,17.70
2022-10-07T13:52:56.820Z,17.70
2022-10-07T13:55:30.943Z,17.70
2022-10-07T13:58:04.657Z,17.60
2022-10-07T14:00:46.256Z,17.60
2022-10-07T14:03:18.300Z,17.70
2022-10-07T14:05:52.299Z,17.70
2022-10-07T14:08:26.138Z,17.60
2022-10-07T14:11:10.976Z,17.60
2022-10-07T14:13:38.148Z,17.50
2022-10-07T14:16:05.802Z,17.50
2022-10-07T14:18:33.165Z,17.50
2022-10-07T14:21:17.214Z,17.50
2022-10-07T14:23:47.329Z,17.40
2022-10-07T14:26:16.504Z,17.50
2022-10-07T14:28:50.292Z,17.40
2022-10-07T14:31:38.201Z,17.40
2022-10-07T14:34:32.689Z,17.40
2022-10-07T14:37:10.432Z,17.40
2022-10-07T14:39:44.495Z,17.30
2022-10-07T14:42:21.286Z,17.30
2022-10-07T14:44:49.558Z,17.30
2022-10-07T14:47:22.431Z,17.30
2022-10-07T14:49:50.365Z,17.30
2022-10-07T14:52:47.467Z,17.20
2022-10-07T14:55:22.282Z,17.20
2022-10-07T14:57:50.188Z,17.20
2022-10-07T15:00:20.531Z,17.20
2022-10-07T15:02:50.576Z,17.20
2022-10-07T15:05:19.231Z,17.20
2022-10-07T15:07:47.131Z,17.20
2022-10-07T15:10:18.497Z,17.20
2022-10-07T15:12:47.040Z,17.20
2022-10-07T15:15:15.136Z,17.20
2022-10-07T15:17:43.323Z,17.20
2022-10-07T15:20:14.458Z,17.20
2022-10-07T15:22:42.109Z,17.10
2022-10-07T15:25:10.976Z,17.10
2022-10-07T15:27:38.553Z,17.10
2022-10-07T15:30:07.557Z,17.00
2022-10-07T15:32:35.232Z,17.00
2022-10-07T15:35:02.789Z,16.90
2022-10-07T15:37:30.257Z,16.90
2022-10-07T15:39:59.098Z,16.80
2022-10-07T15:42:26.849Z,16.80
2022-10-07T15:44:54.408Z,16.70
2022-10-07T15:47:22.047Z,16.70
2022-10-07T15:49:49.788Z,16.60
2022-10-07T15:52:16.942Z,16.60
2022-10-07T15:54:47.304Z,16.50
2022-10-07T15:57:14.966Z,16.50
2022-10-07T15:59:42.655Z,16.40
2022-10-07T16:02:18.198Z,16.40
2022-10-07T16:04:47.479Z,16.30
2022-10-07T16:07:15.829Z,16.30
2022-10-07T16:09:43.138Z,16.30
2022-10-07T16:12:10.490Z,16.20
2022-10-07T16:14:38.080Z,16.10
2022-10-07T16:17:05.645Z,16.10
2022-10-07T16:19:33.080Z,16.10
2022-10-07T16:22:00.427Z,16.00
2022-10-07T16:24:32.541Z,16.00
2022-10-07T16:27:02.517Z,15.90
2022-10-07T16:29:48.334Z,15.90
2022-10-07T16:32:15.479Z,15.80
2022-10-07T16:34:44.617Z,15.70
2022-10-07T16:37:12.982Z,15.70
2022-10-07T16:39:40.266Z,15.60
2022-10-07T16:42:11.551Z,15.50
2022-10-07T16:44:39.593Z,15.50
2022-10-07T16:47:07.447Z,15.40
2022-10-07T16:49:37.119Z,15.40
2022-10-07T16:52:07.389Z,15.30
2022-10-07T16:54:38.528Z,15.20
2022-10-07T16:57:05.802Z,15.10
2022-10-07T16:59:32.971Z,15.00
2022-10-07T17:02:02.757Z,15.00
2022-10-07T17:04:30.002Z,14.80
2022-10-07T17:06:57.375Z,14.80
2022-10-07T17:09:25.462Z,14.70
2022-10-07T17:11:52.767Z,14.60
2022-10-07T17:14:21.706Z,14.50
2022-10-07T17:16:55.801Z,14.40
2022-10-07T17:19:25.933Z,14.30
2022-10-07T17:21:55.074Z,14.30
2022-10-07T17:24:23.550Z,14.20
2022-10-07T17:26:52.934Z,14.10
2022-10-07T17:29:21.685Z,14.00
2022-10-07T17:31:51.218Z,13.90
2022-10-07T17:34:21.132Z,13.90
2022-10-07T17:36:50.413Z,13.80
2022-10-07T17:39:25.541Z,13.80
2022-10-07T17:41:52.645Z,13.70
2022-10-07T17:44:21.704Z,13.70
2022-10-07T17:46:49.415Z,13.70
2022-10-07T17:49:16.931Z,13.60
2022-10-07T17:51:44.614Z,13.60
2022-10-07T17:54:13.842Z,13.60
2022-10-07T17:56:44.703Z,13.50
2022-10-07T17:59:12.717Z,13.50
2022-10-07T18:01:41.434Z,13.50
2022-10-07T18:04:18.833Z,13.50
2022-10-07T18:06:48.322Z,13.50
2022-10-07T18:09:19.093Z,13.50
2022-10-07T18:12:05.715Z,13.50
2022-10-07T18:14:53.744Z,13.50
2022-10-07T18:17:22.390Z,13.40
2022-10-07T18:19:52.785Z,13.50
2022-10-07T18:22:22.319Z,13.40
2022-10-07T18:24:50.290Z,13.40
2022-10-07T18:27:17.882Z,13.40
2022-10-07T18:29:45.333Z,13.40
2022-10-07T18:32:12.867Z,13.40
2022-10-07T18:34:40.090Z,13.40
2022-10-07T18:37:07.234Z,13.40
2022-10-07T18:39:35.643Z,13.40
2022-10-07T18:42:04.951Z,13.30
2022-10-07T18:44:32.188Z,13.30
2022-10-07T18:47:00.056Z,13.30
2022-10-07T18:49:27.955Z,13.30
2022-10-07T18:51:55.755Z,13.20
2022-10-07T18:54:24.141Z,13.20
2022-10-07T18:56:52.475Z,13.20
2022-10-07T18:59:24.268Z,13.20
2022-10-07T19:01:51.863Z,13.10
2022-10-07T19:04:23.670Z,13.10
2022-10-07T19:06:53.888Z,13.00
2022-10-07T19:09:26.584Z,13.00
2022-10-07T19:11:54.587Z,12.90
2022-10-07T19:14:33.954Z,12.90
2022-10-07T19:17:02.163Z,12.80
2022-10-07T19:19:30.742Z,12.80
2022-10-07T19:21:59.004Z,12.70
2022-10-07T19:24:46.106Z,12.70
2022-10-07T19:27:13.639Z,12.60
2022-10-07T19:29:40.823Z,12.60
2022-10-07T19:32:08.919Z,12.50
2022-10-07T19:34:36.457Z,12.50
2022-10-07T19:37:03.822Z,12.50
2022-10-07T19:39:31.001Z,12.40
2022-10-07T19:41:59.204Z,12.40
2022-10-07T19:44:26.582Z,12.40
2022-10-07T19:46:54.385Z,12.30
2022-10-07T19:49:22.656Z,12.30
2022-10-07T19:51:50.003Z,12.20
2022-10-07T19:54:17.194Z,12.20
2022-10-07T19:56:45.511Z,12.10
2022-10-07T19:59:14.549Z,12.10
2022-10-07T20:01:45.998Z,12.10
2022-10-07T20:04:19.203Z,12.00
2022-10-07T20:06:47.070Z,11.90
2022-10-07T20:09:16.687Z,11.90
2022-10-07T20:11:45.027Z,11.80
2022-10-07T20:14:12.227Z,11.80
2022-10-07T20:16:39.682Z,11.80
2022-10-07T20:19:11.306Z,11.80
2022-10-07T20:21:39.501Z,11.70
2022-10-07T20:24:08.419Z,11.70
2022-10-07T20:26:38.015Z,11.70
2022-10-07T20:29:07.571Z,11.60
2022-10-07T20:31:37.309Z,11.60
2022-10-07T20:34:06.159Z,11.60
2022-10-07T20:36:36.463Z,11.50
2022-10-07T20:39:25.214Z,11.50
2022-10-07T20:42:12.445Z,11.50
2022-10-07T20:44:40.425Z,11.40
2022-10-07T20:47:09.919Z,11.40
2022-10-07T20:49:39.135Z,11.40
2022-10-07T20:52:14.401Z,11.30
2022-10-07T20:54:42.552Z,11.30
2022-10-07T20:57:17.158Z,11.30
2022-10-07T20:59:45.491Z,11.20
2022-10-07T21:02:18.051Z,11.20
2022-10-07T21:04:50.330Z,11.20
2022-10-07T21:07:23.440Z,11.10
2022-10-07T21:09:52.099Z,11.10
2022-10-07T21:12:22.334Z,11.00
2022-10-07T21:14:51.123Z,11.00
2022-10-07T21:17:21.308Z,11.00
2022-10-07T21:19:51.624Z,11.00
2022-10-07T21:22:19.785Z,10.90
2022-10-07T21:24:47.996Z,10.90
2022-10-07T21:27:15.962Z,10.90
2022-10-07T21:29:48.685Z,10.90
2022-10-07T21:32:16.108Z,10.90
2022-10-07T21:34:43.826Z,10.90
2022-10-07T21:37:11.187Z,10.90
2022-10-07T21:39:38.447Z,10.80
2022-10-07T21:42:05.769Z,10.80
2022-10-07T21:44:34.819Z,10.80
2022-10-07T21:47:02.517Z,10.70
2022-10-07T21:49:29.654Z,10.70
2022-10-07T21:51:56.997Z,10.70
2022-10-07T21:54:24.384Z,10.70
2022-10-07T21:56:51.647Z,10.60
2022-10-07T21:59:19.096Z,10.60
2022-10-07T22:01:46.448Z,10.60
2022-10-07T22:04:17.537Z,10.60
2022-10-07T22:07:03.982Z,10.50
2022-10-07T22:09:31.912Z,10.50
2022-10-07T22:11:59.341Z,10.50
2022-10-07T22:14:27.873Z,10.40
2022-10-07T22:16:55.207Z,10.40
2022-10-07T22:19:23.410Z,10.40
2022-10-07T22:21:50.909Z,10.40
2022-10-07T22:24:20.201Z,10.30
2022-10-07T22:26:48.176Z,10.30
2022-10-07T22:29:17.385Z,10.30
2022-10-07T22:31:45.106Z,10.20
2022-10-07T22:34:31.339Z,10.20
2022-10-07T22:36:58.963Z,10.20
2022-10-07T22:39:26.998Z,10.20
2022-10-07T22:41:54.524Z,10.20
2022-10-07T22:44:21.662Z,10.20
2022-10-07T22:46:48.901Z,10.10
2022-10-07T22:49:16.294Z,10.10
2022-10-07T22:51:43.566Z,10.10
2022-10-07T22:54:14.564Z,10.00
2022-10-07T22:56:41.982Z,10.10
2022-10-07T22:59:09.296Z,10.00
2022-10-07T23:01:36.898Z,10.00
2022-10-07T23:04:04.879Z,10.00
2022-10-07T23:06:35.470Z,9.90
2022-10-07T23:09:04.084Z,9.90
2022-10-07T23:11:32.057Z,9.90
2022-10-07T23:13:59.754Z,9.90
2022-10-07T23:16:30.101Z,9.90
2022-10-07T23:18:59.036Z,9.90
2022-10-07T23:21:28.614Z,9.90
2022-10-07T23:24:06.872Z,9.80
2022-10-07T23:26:35.831Z,9.80
2022-10-07T23:29:03.764Z,9.80
2022-10-07T23:31:32.869Z,9.80
2022-10-07T23:34:02.229Z,9.70
2022-10-07T23:36:30.436Z,9.70
2022-10-07T23:39:00.165Z,9.70
2022-10-07T23:41:29.680Z,9.70
2022-10-07T23:43:58.778Z,9.70
2022-10-07T23:46:27.766Z,9.60
2022-10-07T23:48:56.483Z,9.60
2022-10-07T23:51:26.538Z,9.60
2022-10-07T23:53:56.345Z,9.50
2022-10-07T23:56:23.828Z,9.50
2022-10-07T23:58:51.293Z,9.50
